sensor_id;sensor_type;location;lat;lon;timestamp;P1;durP1;ratioP1;P2;durP2;ratioP2
8425;SDS011;4250;50.006;8.286;2022-08-05T00:01:49;7.25;;;5.45;;
8425;SDS011;4250;50.006;8.286;2022-08-05T00:04:15;7.25;;;6.15;;
8425;SDS011;4250;50.006;8.286;2022-08-05T00:06:41;14.65;;;6.60;;
8425;SDS011;4250;50.006;8.286;2022-08-05T00:09:06;10.70;;;6.30;;
8425;SDS011;4250;50.006;8.286;2022-08-05T00:11:32;14.05;;;6.80;;
8425;SDS011;4250;50.006;8.286;2022-08-05T00:13:57;9.18;;;5.50;;
8425;SDS011;4250;50.006;8.286;2022-08-05T00:16:23;7.97;;;5.95;;
8425;SDS011;4250;50.006;8.286;2022-08-05T00:18:49;10.38;;;6.47;;
8425;SDS011;4250;50.006;8.286;2022-08-05T00:21:15;11.13;;;6.82;;
8425;SDS011;4250;50.006;8.286;2022-08-05T00:23:41;9.82;;;5.50;;
8425;SDS011;4250;50.006;8.286;2022-08-05T00:26:07;10.50;;;5.80;;
8425;SDS011;4250;50.006;8.286;2022-08-05T00:28:33;7.97;;;6.25;;
8425;SDS011;4250;50.006;8.286;2022-08-05T00:30:59;14.55;;;5.70;;
8425;SDS011;4250;50.006;8.286;2022-08-05T00:33:27;9.73;;;6.05;;
8425;SDS011;4250;50.006;8.286;2022-08-05T00:35:53;13.25;;;5.88;;
8425;SDS011;4250;50.006;8.286;2022-08-05T00:38:18;9.50;;;5.40;;
8425;SDS011;4250;50.006;8.286;2022-08-05T00:40:45;11.18;;;4.68;;
8425;SDS011;4250;50.006;8.286;2022-08-05T00:43:22;11.98;;;4.72;;
8425;SDS011;4250;50.006;8.286;2022-08-05T00:45:47;5.80;;;4.18;;
8425;SDS011;4250;50.006;8.286;2022-08-05T00:48:14;7.88;;;3.95;;
8425;SDS011;4250;50.006;8.286;2022-08-05T00:50:42;9.13;;;3.70;;
8425;SDS011;4250;50.006;8.286;2022-08-05T00:53:09;8.27;;;3.83;;
8425;SDS011;4250;50.006;8.286;2022-08-05T00:55:34;6.65;;;3.42;;
8425;SDS011;4250;50.006;8.286;2022-08-05T00:58:00;5.50;;;3.22;;
8425;SDS011;4250;50.006;8.286;2022-08-05T01:00:27;6.18;;;3.22;;
8425;SDS011;4250;50.006;8.286;2022-08-05T01:02:53;7.55;;;3.55;;
8425;SDS011;4250;50.006;8.286;2022-08-05T01:05:18;9.82;;;3.55;;
8425;SDS011;4250;50.006;8.286;2022-08-05T01:07:43;18.20;;;5.35;;
8425;SDS011;4250;50.006;8.286;2022-08-05T01:10:09;12.05;;;4.40;;
8425;SDS011;4250;50.006;8.286;2022-08-05T01:12:36;13.53;;;4.00;;
8425;SDS011;4250;50.006;8.286;2022-08-05T01:15:03;4.87;;;3.40;;
8425;SDS011;4250;50.006;8.286;2022-08-05T01:17:33;6.57;;;3.37;;
8425;SDS011;4250;50.006;8.286;2022-08-05T01:20:19;4.57;;;3.67;;
8425;SDS011;4250;50.006;8.286;2022-08-05T01:23:08;8.87;;;4.43;;
8425;SDS011;4250;50.006;8.286;2022-08-05T01:31:32;8.20;;;4.67;;
8425;SDS011;4250;50.006;8.286;2022-08-05T01:34:03;8.37;;;4.80;;
8425;SDS011;4250;50.006;8.286;2022-08-05T01:36:35;8.27;;;5.30;;
8425;SDS011;4250;50.006;8.286;2022-08-05T01:39:05;6.63;;;5.27;;
8425;SDS011;4250;50.006;8.286;2022-08-05T01:41:32;9.57;;;5.50;;
8425;SDS011;4250;50.006;8.286;2022-08-05T01:43:59;10.53;;;6.10;;
8425;SDS011;4250;50.006;8.286;2022-08-05T01:46:25;7.73;;;5.53;;
8425;SDS011;4250;50.006;8.286;2022-08-05T01:48:52;7.77;;;5.27;;
8425;SDS011;4250;50.006;8.286;2022-08-05T01:51:18;10.40;;;5.33;;
8425;SDS011;4250;50.006;8.286;2022-08-05T01:53:45;9.00;;;5.23;;
8425;SDS011;4250;50.006;8.286;2022-08-05T01:56:12;10.30;;;5.00;;
8425;SDS011;4250;50.006;8.286;2022-08-05T01:58:38;10.23;;;4.87;;
8425;SDS011;4250;50.006;8.286;2022-08-05T02:01:04;7.80;;;4.87;;
8425;SDS011;4250;50.006;8.286;2022-08-05T02:03:31;7.97;;;5.03;;
8425;SDS011;4250;50.006;8.286;2022-08-05T02:05:59;8.37;;;4.70;;
8425;SDS011;4250;50.006;8.286;2022-08-05T02:08:25;9.20;;;5.37;;
8425;SDS011;4250;50.006;8.286;2022-08-05T02:10:51;6.10;;;4.90;;
8425;SDS011;4250;50.006;8.286;2022-08-05T02:13:21;9.17;;;4.37;;
8425;SDS011;4250;50.006;8.286;2022-08-05T02:18:57;5.40;;;4.00;;
8425;SDS011;4250;50.006;8.286;2022-08-05T02:21:27;4.20;;;3.80;;
8425;SDS011;4250;50.006;8.286;2022-08-05T02:23:55;5.30;;;3.63;;
8425;SDS011;4250;50.006;8.286;2022-08-05T02:26:27;14.00;;;4.87;;
8425;SDS011;4250;50.006;8.286;2022-08-05T02:28:59;7.63;;;4.23;;
8425;SDS011;4250;50.006;8.286;2022-08-05T02:31:26;7.40;;;3.53;;
8425;SDS011;4250;50.006;8.286;2022-08-05T02:33:54;4.57;;;3.53;;
8425;SDS011;4250;50.006;8.286;2022-08-05T02:36:22;5.37;;;3.37;;
8425;SDS011;4250;50.006;8.286;2022-08-05T02:38:48;6.30;;;4.00;;
8425;SDS011;4250;50.006;8.286;2022-08-05T02:41:17;5.43;;;3.77;;
8425;SDS011;4250;50.006;8.286;2022-08-05T02:43:44;6.80;;;4.00;;
8425;SDS011;4250;50.006;8.286;2022-08-05T02:46:13;5.10;;;3.83;;
8425;SDS011;4250;50.006;8.286;2022-08-05T02:48:39;9.20;;;4.07;;
8425;SDS011;4250;50.006;8.286;2022-08-05T02:51:05;5.83;;;4.00;;
8425;SDS011;4250;50.006;8.286;2022-08-05T02:53:30;8.57;;;4.37;;
8425;SDS011;4250;50.006;8.286;2022-08-05T02:55:56;8.43;;;3.70;;
8425;SDS011;4250;50.006;8.286;2022-08-05T02:58:22;6.40;;;4.67;;
8425;SDS011;4250;50.006;8.286;2022-08-05T03:00:48;12.20;;;6.00;;
8425;SDS011;4250;50.006;8.286;2022-08-05T03:03:18;10.77;;;5.50;;
8425;SDS011;4250;50.006;8.286;2022-08-05T03:05:44;10.57;;;6.77;;
8425;SDS011;4250;50.006;8.286;2022-08-05T03:08:10;10.93;;;8.20;;
8425;SDS011;4250;50.006;8.286;2022-08-05T03:10:36;13.97;;;8.67;;
8425;SDS011;4250;50.006;8.286;2022-08-05T03:13:02;13.27;;;8.77;;
8425;SDS011;4250;50.006;8.286;2022-08-05T03:15:35;12.17;;;8.60;;
8425;SDS011;4250;50.006;8.286;2022-08-05T03:18:01;14.47;;;8.23;;
8425;SDS011;4250;50.006;8.286;2022-08-05T03:20:26;18.33;;;11.57;;
8425;SDS011;4250;50.006;8.286;2022-08-05T03:22:52;16.90;;;11.67;;
8425;SDS011;4250;50.006;8.286;2022-08-05T03:25:18;15.77;;;10.60;;
8425;SDS011;4250;50.006;8.286;2022-08-05T03:27:44;12.27;;;10.97;;
8425;SDS011;4250;50.006;8.286;2022-08-05T03:30:10;15.23;;;11.83;;
8425;SDS011;4250;50.006;8.286;2022-08-05T03:32:36;20.87;;;13.60;;
8425;SDS011;4250;50.006;8.286;2022-08-05T03:35:02;17.47;;;13.63;;
8425;SDS011;4250;50.006;8.286;2022-08-05T03:37:27;20.37;;;15.00;;
8425;SDS011;4250;50.006;8.286;2022-08-05T03:39:55;23.40;;;15.00;;
8425;SDS011;4250;50.006;8.286;2022-08-05T03:42:22;19.17;;;13.80;;
8425;SDS011;4250;50.006;8.286;2022-08-05T03:44:47;20.03;;;14.97;;
8425;SDS011;4250;50.006;8.286;2022-08-05T03:47:13;19.93;;;15.07;;
8425;SDS011;4250;50.006;8.286;2022-08-05T03:49:38;23.83;;;17.27;;
8425;SDS011;4250;50.006;8.286;2022-08-05T03:52:05;15.40;;;11.80;;
8425;SDS011;4250;50.006;8.286;2022-08-05T03:57:10;13.87;;;9.67;;
8425;SDS011;4250;50.006;8.286;2022-08-05T03:59:39;15.13;;;9.67;;
8425;SDS011;4250;50.006;8.286;2022-08-05T04:02:06;10.67;;;8.63;;
8425;SDS011;4250;50.006;8.286;2022-08-05T04:04:32;10.30;;;8.90;;
8425;SDS011;4250;50.006;8.286;2022-08-05T04:06:58;9.33;;;7.00;;
8425;SDS011;4250;50.006;8.286;2022-08-05T04:09:24;10.87;;;8.07;;
8425;SDS011;4250;50.006;8.286;2022-08-05T04:11:50;14.70;;;8.90;;
8425;SDS011;4250;50.006;8.286;2022-08-05T04:14:15;12.43;;;8.70;;
8425;SDS011;4250;50.006;8.286;2022-08-05T04:16:41;13.00;;;9.63;;
8425;SDS011;4250;50.006;8.286;2022-08-05T04:19:10;11.20;;;8.73;;
8425;SDS011;4250;50.006;8.286;2022-08-05T04:21:35;8.83;;;7.70;;
8425;SDS011;4250;50.006;8.286;2022-08-05T04:24:01;10.13;;;7.50;;
8425;SDS011;4250;50.006;8.286;2022-08-05T04:26:28;13.63;;;9.00;;
8425;SDS011;4250;50.006;8.286;2022-08-05T04:28:53;10.63;;;7.17;;
8425;SDS011;4250;50.006;8.286;2022-08-05T04:31:19;9.30;;;7.70;;
8425;SDS011;4250;50.006;8.286;2022-08-05T04:33:44;13.07;;;7.83;;
8425;SDS011;4250;50.006;8.286;2022-08-05T04:36:10;13.33;;;7.97;;
8425;SDS011;4250;50.006;8.286;2022-08-05T04:38:36;11.30;;;9.17;;
8425;SDS011;4250;50.006;8.286;2022-08-05T04:41:02;15.83;;;9.87;;
8425;SDS011;4250;50.006;8.286;2022-08-05T04:43:27;9.80;;;8.80;;
8425;SDS011;4250;50.006;8.286;2022-08-05T04:45:52;13.13;;;9.30;;
8425;SDS011;4250;50.006;8.286;2022-08-05T04:48:18;13.47;;;9.83;;
8425;SDS011;4250;50.006;8.286;2022-08-05T04:50:44;11.10;;;8.80;;
8425;SDS011;4250;50.006;8.286;2022-08-05T04:53:12;12.10;;;9.43;;
8425;SDS011;4250;50.006;8.286;2022-08-05T04:55:38;11.80;;;9.47;;
8425;SDS011;4250;50.006;8.286;2022-08-05T04:58:09;10.53;;;8.13;;
8425;SDS011;4250;50.006;8.286;2022-08-05T05:03:05;10.23;;;7.43;;
8425;SDS011;4250;50.006;8.286;2022-08-05T05:05:30;9.67;;;7.23;;
8425;SDS011;4250;50.006;8.286;2022-08-05T05:08:00;13.57;;;6.70;;
8425;SDS011;4250;50.006;8.286;2022-08-05T05:10:26;9.73;;;7.30;;
8425;SDS011;4250;50.006;8.286;2022-08-05T05:12:52;8.97;;;7.53;;
8425;SDS011;4250;50.006;8.286;2022-08-05T05:15:18;9.23;;;7.13;;
8425;SDS011;4250;50.006;8.286;2022-08-05T05:17:43;15.60;;;8.40;;
8425;SDS011;4250;50.006;8.286;2022-08-05T05:20:09;11.27;;;8.10;;
8425;SDS011;4250;50.006;8.286;2022-08-05T05:22:35;10.87;;;6.77;;
8425;SDS011;4250;50.006;8.286;2022-08-05T05:25:01;9.90;;;6.97;;
8425;SDS011;4250;50.006;8.286;2022-08-05T05:27:27;7.47;;;5.80;;
8425;SDS011;4250;50.006;8.286;2022-08-05T05:29:56;6.67;;;5.37;;
8425;SDS011;4250;50.006;8.286;2022-08-05T05:32:21;5.27;;;4.73;;
8425;SDS011;4250;50.006;8.286;2022-08-05T05:34:47;5.80;;;5.20;;
8425;SDS011;4250;50.006;8.286;2022-08-05T05:37:12;6.70;;;4.37;;
8425;SDS011;4250;50.006;8.286;2022-08-05T05:39:39;4.87;;;4.40;;
8425;SDS011;4250;50.006;8.286;2022-08-05T05:42:04;5.13;;;3.83;;
8425;SDS011;4250;50.006;8.286;2022-08-05T05:44:30;5.23;;;4.03;;
8425;SDS011;4250;50.006;8.286;2022-08-05T05:46:55;7.13;;;4.57;;
8425;SDS011;4250;50.006;8.286;2022-08-05T05:49:21;8.40;;;4.30;;
8425;SDS011;4250;50.006;8.286;2022-08-05T05:51:46;4.87;;;3.73;;
8425;SDS011;4250;50.006;8.286;2022-08-05T05:54:11;6.47;;;3.97;;
8425;SDS011;4250;50.006;8.286;2022-08-05T05:56:37;3.77;;;3.43;;
8425;SDS011;4250;50.006;8.286;2022-08-05T05:59:04;4.17;;;3.77;;
8425;SDS011;4250;50.006;8.286;2022-08-05T06:01:30;4.17;;;3.83;;
8425;SDS011;4250;50.006;8.286;2022-08-05T06:03:56;8.00;;;4.07;;
8425;SDS011;4250;50.006;8.286;2022-08-05T06:06:22;11.47;;;4.47;;
8425;SDS011;4250;50.006;8.286;2022-08-05T06:08:47;4.20;;;3.80;;
8425;SDS011;4250;50.006;8.286;2022-08-05T06:11:13;5.27;;;3.50;;
8425;SDS011;4250;50.006;8.286;2022-08-05T06:13:38;6.70;;;3.87;;
8425;SDS011;4250;50.006;8.286;2022-08-05T06:41:18;7.43;;;4.07;;
8425;SDS011;4250;50.006;8.286;2022-08-05T06:49:21;7.60;;;4.33;;
8425;SDS011;4250;50.006;8.286;2022-08-05T06:51:46;4.80;;;4.07;;
8425;SDS011;4250;50.006;8.286;2022-08-05T06:54:11;7.17;;;3.60;;
8425;SDS011;4250;50.006;8.286;2022-08-05T06:56:37;4.37;;;3.67;;
8425;SDS011;4250;50.006;8.286;2022-08-05T06:59:03;5.30;;;3.90;;
8425;SDS011;4250;50.006;8.286;2022-08-05T07:01:30;4.83;;;3.40;;
8425;SDS011;4250;50.006;8.286;2022-08-05T07:03:55;4.63;;;3.90;;
8425;SDS011;4250;50.006;8.286;2022-08-05T07:06:20;5.03;;;3.67;;
8425;SDS011;4250;50.006;8.286;2022-08-05T07:08:47;6.87;;;4.30;;
8425;SDS011;4250;50.006;8.286;2022-08-05T07:11:12;6.50;;;4.50;;
8425;SDS011;4250;50.006;8.286;2022-08-05T07:13:38;5.83;;;3.80;;
8425;SDS011;4250;50.006;8.286;2022-08-05T07:16:22;6.60;;;4.13;;
8425;SDS011;4250;50.006;8.286;2022-08-05T07:19:06;5.13;;;4.20;;
8425;SDS011;4250;50.006;8.286;2022-08-05T07:21:31;5.63;;;3.80;;
8425;SDS011;4250;50.006;8.286;2022-08-05T07:23:56;7.60;;;4.43;;
8425;SDS011;4250;50.006;8.286;2022-08-05T07:26:22;5.33;;;4.23;;
8425;SDS011;4250;50.006;8.286;2022-08-05T07:28:47;5.27;;;4.00;;
8425;SDS011;4250;50.006;8.286;2022-08-05T07:31:14;6.23;;;3.80;;
8425;SDS011;4250;50.006;8.286;2022-08-05T07:33:40;3.87;;;3.57;;
8425;SDS011;4250;50.006;8.286;2022-08-05T07:36:06;6.40;;;4.00;;
8425;SDS011;4250;50.006;8.286;2022-08-05T07:38:32;4.13;;;3.73;;
8425;SDS011;4250;50.006;8.286;2022-08-05T07:40:58;4.00;;;3.60;;
8425;SDS011;4250;50.006;8.286;2022-08-05T07:43:23;4.13;;;3.70;;
8425;SDS011;4250;50.006;8.286;2022-08-05T07:45:49;3.83;;;3.40;;
8425;SDS011;4250;50.006;8.286;2022-08-05T07:48:14;3.23;;;2.97;;
8425;SDS011;4250;50.006;8.286;2022-08-05T07:50:39;5.23;;;3.40;;
8425;SDS011;4250;50.006;8.286;2022-08-05T07:53:06;4.40;;;3.70;;
8425;SDS011;4250;50.006;8.286;2022-08-05T07:55:31;3.50;;;3.20;;
8425;SDS011;4250;50.006;8.286;2022-08-05T07:57:57;5.00;;;3.60;;
8425;SDS011;4250;50.006;8.286;2022-08-05T08:00:22;4.33;;;3.37;;
8425;SDS011;4250;50.006;8.286;2022-08-05T08:02:49;4.67;;;3.77;;
8425;SDS011;4250;50.006;8.286;2022-08-05T08:08:38;6.87;;;4.73;;
8425;SDS011;4250;50.006;8.286;2022-08-05T08:11:03;4.20;;;3.20;;
8425;SDS011;4250;50.006;8.286;2022-08-05T08:13:29;4.63;;;3.50;;
8425;SDS011;4250;50.006;8.286;2022-08-05T08:15:54;3.57;;;3.27;;
8425;SDS011;4250;50.006;8.286;2022-08-05T08:18:19;5.07;;;3.17;;
8425;SDS011;4250;50.006;8.286;2022-08-05T08:20:45;3.83;;;3.43;;
8425;SDS011;4250;50.006;8.286;2022-08-05T08:23:10;3.40;;;3.10;;
8425;SDS011;4250;50.006;8.286;2022-08-05T08:25:36;4.03;;;3.53;;
8425;SDS011;4250;50.006;8.286;2022-08-05T08:28:01;5.67;;;3.50;;
8425;SDS011;4250;50.006;8.286;2022-08-05T08:30:26;9.50;;;3.30;;
8425;SDS011;4250;50.006;8.286;2022-08-05T08:32:52;4.25;;;3.40;;
8425;SDS011;4250;50.006;8.286;2022-08-05T08:35:17;3.30;;;2.93;;
8425;SDS011;4250;50.006;8.286;2022-08-05T08:37:42;3.53;;;3.13;;
8425;SDS011;4250;50.006;8.286;2022-08-05T08:40:08;3.20;;;2.93;;
8425;SDS011;4250;50.006;8.286;2022-08-05T08:42:34;2.53;;;2.33;;
8425;SDS011;4250;50.006;8.286;2022-08-05T08:45:00;4.43;;;2.60;;
8425;SDS011;4250;50.006;8.286;2022-08-05T08:47:27;2.60;;;2.40;;
8425;SDS011;4250;50.006;8.286;2022-08-05T08:49:54;2.83;;;2.50;;
8425;SDS011;4250;50.006;8.286;2022-08-05T08:52:27;3.73;;;2.90;;
8425;SDS011;4250;50.006;8.286;2022-08-05T08:54:54;2.70;;;2.50;;
8425;SDS011;4250;50.006;8.286;2022-08-05T08:57:19;4.57;;;3.33;;
8425;SDS011;4250;50.006;8.286;2022-08-05T08:59:45;3.17;;;2.88;;
8425;SDS011;4250;50.006;8.286;2022-08-05T09:02:11;3.42;;;2.80;;
8425;SDS011;4250;50.006;8.286;2022-08-05T09:04:36;3.38;;;2.70;;
8425;SDS011;4250;50.006;8.286;2022-08-05T09:07:03;5.03;;;2.90;;
8425;SDS011;4250;50.006;8.286;2022-08-05T09:09:30;3.43;;;3.00;;
8425;SDS011;4250;50.006;8.286;2022-08-05T09:11:56;3.43;;;3.13;;
8425;SDS011;4250;50.006;8.286;2022-08-05T09:14:22;4.70;;;4.27;;
8425;SDS011;4250;50.006;8.286;2022-08-05T09:16:47;5.67;;;5.20;;
8425;SDS011;4250;50.006;8.286;2022-08-05T09:19:13;3.90;;;3.50;;
8425;SDS011;4250;50.006;8.286;2022-08-05T09:21:38;4.90;;;3.27;;
8425;SDS011;4250;50.006;8.286;2022-08-05T09:24:05;3.60;;;3.00;;
8425;SDS011;4250;50.006;8.286;2022-08-05T09:26:37;4.83;;;3.20;;
8425;SDS011;4250;50.006;8.286;2022-08-05T09:29:03;3.03;;;2.83;;
8425;SDS011;4250;50.006;8.286;2022-08-05T09:31:31;8.63;;;3.70;;
8425;SDS011;4250;50.006;8.286;2022-08-05T09:34:03;11.03;;;3.80;;
8425;SDS011;4250;50.006;8.286;2022-08-05T09:36:43;4.50;;;3.00;;
8425;SDS011;4250;50.006;8.286;2022-08-05T09:39:17;4.07;;;3.30;;
8425;SDS011;4250;50.006;8.286;2022-08-05T09:41:57;3.60;;;3.30;;
8425;SDS011;4250;50.006;8.286;2022-08-05T09:47:08;4.33;;;3.27;;
8425;SDS011;4250;50.006;8.286;2022-08-05T09:49:45;3.70;;;2.70;;
8425;SDS011;4250;50.006;8.286;2022-08-05T09:52:16;4.90;;;2.77;;
8425;SDS011;4250;50.006;8.286;2022-08-05T09:54:51;3.47;;;3.03;;
8425;SDS011;4250;50.006;8.286;2022-08-05T09:57:31;3.92;;;3.08;;
8425;SDS011;4250;50.006;8.286;2022-08-05T10:00:14;2.80;;;2.60;;
8425;SDS011;4250;50.006;8.286;2022-08-05T10:02:42;3.20;;;2.90;;
8425;SDS011;4250;50.006;8.286;2022-08-05T10:05:12;3.55;;;3.10;;
8425;SDS011;4250;50.006;8.286;2022-08-05T10:07:49;3.55;;;3.10;;
8425;SDS011;4250;50.006;8.286;2022-08-05T10:10:26;3.70;;;3.00;;
8425;SDS011;4250;50.006;8.286;2022-08-05T10:12:56;3.40;;;3.10;;
8425;SDS011;4250;50.006;8.286;2022-08-05T10:15:24;4.05;;;3.42;;
8425;SDS011;4250;50.006;8.286;2022-08-05T10:20:57;2.95;;;2.75;;
8425;SDS011;4250;50.006;8.286;2022-08-05T10:23:25;3.40;;;3.10;;
8425;SDS011;4250;50.006;8.286;2022-08-05T10:25:55;4.38;;;3.78;;
8425;SDS011;4250;50.006;8.286;2022-08-05T10:28:22;3.75;;;3.40;;
8425;SDS011;4250;50.006;8.286;2022-08-05T10:30:49;3.63;;;3.28;;
8425;SDS011;4250;50.006;8.286;2022-08-05T10:33:15;4.13;;;3.03;;
8425;SDS011;4250;50.006;8.286;2022-08-05T10:35:41;4.18;;;3.47;;
8425;SDS011;4250;50.006;8.286;2022-08-05T10:38:06;4.43;;;3.40;;
8425;SDS011;4250;50.006;8.286;2022-08-05T10:40:36;3.45;;;3.08;;
8425;SDS011;4250;50.006;8.286;2022-08-05T10:43:16;3.63;;;3.33;;
8425;SDS011;4250;50.006;8.286;2022-08-05T10:45:59;3.97;;;3.58;;
8425;SDS011;4250;50.006;8.286;2022-08-05T10:48:39;3.53;;;3.22;;
8425;SDS011;4250;50.006;8.286;2022-08-05T10:51:12;3.80;;;3.50;;
8425;SDS011;4250;50.006;8.286;2022-08-05T10:53:43;4.22;;;3.40;;
8425;SDS011;4250;50.006;8.286;2022-08-05T10:56:16;3.90;;;3.50;;
8425;SDS011;4250;50.006;8.286;2022-08-05T10:58:47;4.38;;;3.80;;
8425;SDS011;4250;50.006;8.286;2022-08-05T11:01:28;7.45;;;3.88;;
8425;SDS011;4250;50.006;8.286;2022-08-05T11:04:14;4.30;;;3.75;;
8425;SDS011;4250;50.006;8.286;2022-08-05T11:09:47;4.25;;;3.70;;
8425;SDS011;4250;50.006;8.286;2022-08-05T11:14:48;4.27;;;3.87;;
8425;SDS011;4250;50.006;8.286;2022-08-05T11:17:29;4.73;;;3.90;;
8425;SDS011;4250;50.006;8.286;2022-08-05T11:19:57;3.85;;;3.55;;
8425;SDS011;4250;50.006;8.286;2022-08-05T11:27:53;3.42;;;3.20;;
8425;SDS011;4250;50.006;8.286;2022-08-05T11:30:19;4.18;;;3.80;;
8425;SDS011;4250;50.006;8.286;2022-08-05T11:32:45;5.55;;;4.07;;
8425;SDS011;4250;50.006;8.286;2022-08-05T11:38:13;3.72;;;3.42;;
8425;SDS011;4250;50.006;8.286;2022-08-05T11:43:23;4.10;;;3.65;;
8425;SDS011;4250;50.006;8.286;2022-08-05T11:45:48;3.83;;;3.53;;
8425;SDS011;4250;50.006;8.286;2022-08-05T11:48:14;4.03;;;3.67;;
8425;SDS011;4250;50.006;8.286;2022-08-05T11:50:39;4.30;;;3.90;;
8425;SDS011;4250;50.006;8.286;2022-08-05T11:53:06;4.25;;;3.90;;
8425;SDS011;4250;50.006;8.286;2022-08-05T11:55:32;4.10;;;3.75;;
8425;SDS011;4250;50.006;8.286;2022-08-05T11:57:57;4.78;;;3.90;;
8425;SDS011;4250;50.006;8.286;2022-08-05T12:00:26;4.32;;;3.92;;
8425;SDS011;4250;50.006;8.286;2022-08-05T12:02:53;4.45;;;4.00;;
8425;SDS011;4250;50.006;8.286;2022-08-05T12:05:28;3.97;;;3.67;;
8425;SDS011;4250;50.006;8.286;2022-08-05T12:07:56;4.63;;;3.97;;
8425;SDS011;4250;50.006;8.286;2022-08-05T12:10:22;3.80;;;3.42;;
8425;SDS011;4250;50.006;8.286;2022-08-05T12:12:50;4.15;;;3.85;;
8425;SDS011;4250;50.006;8.286;2022-08-05T12:15:20;4.38;;;3.97;;
8425;SDS011;4250;50.006;8.286;2022-08-05T12:17:45;4.15;;;3.78;;
8425;SDS011;4250;50.006;8.286;2022-08-05T12:20:11;3.97;;;3.63;;
8425;SDS011;4250;50.006;8.286;2022-08-05T12:22:37;5.80;;;4.60;;
8425;SDS011;4250;50.006;8.286;2022-08-05T12:25:03;4.82;;;4.32;;
8425;SDS011;4250;50.006;8.286;2022-08-05T12:27:29;3.92;;;3.55;;
8425;SDS011;4250;50.006;8.286;2022-08-05T12:32:30;4.05;;;3.72;;
8425;SDS011;4250;50.006;8.286;2022-08-05T12:34:56;5.32;;;4.50;;
8425;SDS011;4250;50.006;8.286;2022-08-05T12:37:21;7.22;;;4.80;;
8425;SDS011;4250;50.006;8.286;2022-08-05T12:39:47;4.72;;;4.22;;
8425;SDS011;4250;50.006;8.286;2022-08-05T12:42:15;5.28;;;4.60;;
8425;SDS011;4250;50.006;8.286;2022-08-05T12:44:42;5.40;;;4.75;;
8425;SDS011;4250;50.006;8.286;2022-08-05T12:47:08;5.85;;;4.28;;
8425;SDS011;4250;50.006;8.286;2022-08-05T12:49:41;4.55;;;4.18;;
8425;SDS011;4250;50.006;8.286;2022-08-05T12:52:11;5.57;;;4.38;;
8425;SDS011;4250;50.006;8.286;2022-08-05T12:54:38;4.85;;;4.45;;
8425;SDS011;4250;50.006;8.286;2022-08-05T12:57:04;4.70;;;4.30;;
8425;SDS011;4250;50.006;8.286;2022-08-05T12:59:32;6.55;;;4.00;;
8425;SDS011;4250;50.006;8.286;2022-08-05T13:02:03;4.95;;;4.10;;
8425;SDS011;4250;50.006;8.286;2022-08-05T13:04:36;5.40;;;4.97;;
8425;SDS011;4250;50.006;8.286;2022-08-05T13:07:04;5.18;;;4.70;;
8425;SDS011;4250;50.006;8.286;2022-08-05T13:09:31;5.43;;;4.68;;
8425;SDS011;4250;50.006;8.286;2022-08-05T13:12:02;5.97;;;4.65;;
8425;SDS011;4250;50.006;8.286;2022-08-05T13:14:33;4.60;;;4.13;;
8425;SDS011;4250;50.006;8.286;2022-08-05T13:17:06;5.07;;;4.68;;
8425;SDS011;4250;50.006;8.286;2022-08-05T13:19:40;5.65;;;4.60;;
8425;SDS011;4250;50.006;8.286;2022-08-05T13:22:06;5.05;;;4.65;;
8425;SDS011;4250;50.006;8.286;2022-08-05T13:24:31;5.55;;;5.05;;
8425;SDS011;4250;50.006;8.286;2022-08-05T13:26:57;6.47;;;5.35;;
8425;SDS011;4250;50.006;8.286;2022-08-05T13:29:22;7.43;;;5.68;;
8425;SDS011;4250;50.006;8.286;2022-08-05T13:31:48;6.05;;;5.40;;
8425;SDS011;4250;50.006;8.286;2022-08-05T13:34:13;7.00;;;6.32;;
8425;SDS011;4250;50.006;8.286;2022-08-05T13:36:39;7.73;;;7.03;;
8425;SDS011;4250;50.006;8.286;2022-08-05T13:39:05;12.63;;;7.27;;
8425;SDS011;4250;50.006;8.286;2022-08-05T13:41:31;8.37;;;7.00;;
8425;SDS011;4250;50.006;8.286;2022-08-05T13:43:56;10.67;;;8.83;;
8425;SDS011;4250;50.006;8.286;2022-08-05T13:46:22;10.93;;;9.80;;
8425;SDS011;4250;50.006;8.286;2022-08-05T13:48:48;14.10;;;10.70;;
8425;SDS011;4250;50.006;8.286;2022-08-05T13:51:13;14.00;;;11.87;;
8425;SDS011;4250;50.006;8.286;2022-08-05T13:53:39;15.63;;;11.83;;
8425;SDS011;4250;50.006;8.286;2022-08-05T13:56:05;12.90;;;11.30;;
8425;SDS011;4250;50.006;8.286;2022-08-05T13:58:30;18.77;;;11.50;;
8425;SDS011;4250;50.006;8.286;2022-08-05T14:00:56;15.13;;;10.80;;
8425;SDS011;4250;50.006;8.286;2022-08-05T14:03:21;11.17;;;9.10;;
8425;SDS011;4250;50.006;8.286;2022-08-05T14:05:47;9.30;;;8.50;;
8425;SDS011;4250;50.006;8.286;2022-08-05T14:08:13;10.80;;;8.82;;
8425;SDS011;4250;50.006;8.286;2022-08-05T14:10:39;9.35;;;8.38;;
8425;SDS011;4250;50.006;8.286;2022-08-05T14:13:04;9.38;;;8.43;;
8425;SDS011;4250;50.006;8.286;2022-08-05T14:15:31;9.55;;;8.60;;
8425;SDS011;4250;50.006;8.286;2022-08-05T14:17:57;12.68;;;10.30;;
8425;SDS011;4250;50.006;8.286;2022-08-05T14:20:23;14.90;;;13.15;;
8425;SDS011;4250;50.006;8.286;2022-08-05T14:22:48;20.45;;;17.05;;
8425;SDS011;4250;50.006;8.286;2022-08-05T14:25:13;20.15;;;18.05;;
8425;SDS011;4250;50.006;8.286;2022-08-05T14:27:39;22.90;;;20.50;;
8425;SDS011;4250;50.006;8.286;2022-08-05T14:30:05;23.65;;;20.75;;
8425;SDS011;4250;50.006;8.286;2022-08-05T14:32:30;24.58;;;21.77;;
8425;SDS011;4250;50.006;8.286;2022-08-05T14:34:56;24.25;;;20.80;;
8425;SDS011;4250;50.006;8.286;2022-08-05T14:37:21;23.30;;;20.80;;
8425;SDS011;4250;50.006;8.286;2022-08-05T14:39:47;23.47;;;20.97;;
8425;SDS011;4250;50.006;8.286;2022-08-05T14:42:12;21.87;;;19.67;;
8425;SDS011;4250;50.006;8.286;2022-08-05T14:44:38;22.17;;;19.83;;
8425;SDS011;4250;50.006;8.286;2022-08-05T14:47:03;21.47;;;19.17;;
8425;SDS011;4250;50.006;8.286;2022-08-05T14:49:29;22.07;;;19.60;;
8425;SDS011;4250;50.006;8.286;2022-08-05T14:51:54;21.10;;;18.97;;
8425;SDS011;4250;50.006;8.286;2022-08-05T14:54:20;20.07;;;17.37;;
8425;SDS011;4250;50.006;8.286;2022-08-05T14:56:45;18.47;;;16.57;;
8425;SDS011;4250;50.006;8.286;2022-08-05T14:59:10;19.17;;;16.30;;
8425;SDS011;4250;50.006;8.286;2022-08-05T15:01:36;16.47;;;13.90;;
8425;SDS011;4250;50.006;8.286;2022-08-05T15:04:01;14.73;;;12.60;;
8425;SDS011;4250;50.006;8.286;2022-08-05T15:06:27;11.60;;;10.40;;
8425;SDS011;4250;50.006;8.286;2022-08-05T15:08:54;12.30;;;11.00;;
8425;SDS011;4250;50.006;8.286;2022-08-05T15:11:21;10.93;;;9.27;;
8425;SDS011;4250;50.006;8.286;2022-08-05T15:13:47;7.67;;;6.87;;
8425;SDS011;4250;50.006;8.286;2022-08-05T15:16:12;6.88;;;6.07;;
8425;SDS011;4250;50.006;8.286;2022-08-05T15:18:38;6.30;;;5.60;;
8425;SDS011;4250;50.006;8.286;2022-08-05T15:21:04;5.40;;;4.90;;
8425;SDS011;4250;50.006;8.286;2022-08-05T15:23:29;10.70;;;5.40;;
8425;SDS011;4250;50.006;8.286;2022-08-05T15:25:55;5.00;;;4.60;;
8425;SDS011;4250;50.006;8.286;2022-08-05T15:28:20;5.43;;;4.70;;
8425;SDS011;4250;50.006;8.286;2022-08-05T15:30:46;4.53;;;4.10;;
8425;SDS011;4250;50.006;8.286;2022-08-05T15:33:12;4.27;;;3.93;;
8425;SDS011;4250;50.006;8.286;2022-08-05T15:35:38;4.67;;;4.27;;
8425;SDS011;4250;50.006;8.286;2022-08-05T15:38:04;3.70;;;3.40;;
8425;SDS011;4250;50.006;8.286;2022-08-05T15:40:29;3.40;;;3.10;;
8425;SDS011;4250;50.006;8.286;2022-08-05T15:42:54;3.70;;;3.40;;
8425;SDS011;4250;50.006;8.286;2022-08-05T15:45:20;5.03;;;3.87;;
8425;SDS011;4250;50.006;8.286;2022-08-05T15:47:46;4.43;;;3.40;;
8425;SDS011;4250;50.006;8.286;2022-08-05T15:50:12;3.63;;;2.50;;
8425;SDS011;4250;50.006;8.286;2022-08-05T15:52:38;3.53;;;3.07;;
8425;SDS011;4250;50.006;8.286;2022-08-05T15:55:05;3.80;;;2.70;;
8425;SDS011;4250;50.006;8.286;2022-08-05T15:57:32;2.90;;;2.63;;
8425;SDS011;4250;50.006;8.286;2022-08-05T15:59:57;3.45;;;2.88;;
8425;SDS011;4250;50.006;8.286;2022-08-05T16:02:23;5.05;;;2.42;;
8425;SDS011;4250;50.006;8.286;2022-08-05T16:04:48;3.55;;;1.98;;
8425;SDS011;4250;50.006;8.286;2022-08-05T16:07:14;3.83;;;2.45;;
8425;SDS011;4250;50.006;8.286;2022-08-05T16:09:39;2.47;;;2.10;;
8425;SDS011;4250;50.006;8.286;2022-08-05T16:12:05;1.73;;;1.63;;
8425;SDS011;4250;50.006;8.286;2022-08-05T16:14:31;2.20;;;1.63;;
8425;SDS011;4250;50.006;8.286;2022-08-05T16:16:56;2.75;;;1.73;;
8425;SDS011;4250;50.006;8.286;2022-08-05T16:19:22;3.95;;;1.80;;
8425;SDS011;4250;50.006;8.286;2022-08-05T16:21:47;1.98;;;1.70;;
8425;SDS011;4250;50.006;8.286;2022-08-05T16:24:12;5.43;;;1.48;;